METAR Data
IDs: Format: Raw Decoded Include TAF

Data at: 1355 UTC 27 Nov 2021

LROP 271330Z 29007KT CAVOK 14/06 Q1003 NOSIG